Time;durP1;ratioP1;P1;durP2;ratioP2;P2;SDS_P1;SDS_P2;PMS_P1;PMS_P2;Temp;Humidity;BMP_temperature;BMP_pressure;BME280_temperature;BME280_humidity;BME280_pressure;Samples;Min_cycle;Max_cycle;Signal;HPM_P1;HPM_P2
2023/12/27 00:02:22;;;;;;;2.17;1.30;;;6.20;99.90;;;;;;5035282;28;20191;-79
2023/12/27 00:05:09;;;;;;;1.93;0.80;;;6.20;99.90;;;;;;5034308;28;20680;-79
2023/12/27 00:07:57;;;;;;;1.93;1.03;;;6.20;99.90;;;;;;5035346;28;20200;-79
2023/12/27 00:10:44;;;;;;;1.63;0.90;;;6.10;99.90;;;;;;5035544;28;20672;-79
2023/12/27 00:13:33;;;;;;;2.20;0.90;;;6.10;99.90;;;;;;5033729;28;20656;-79
2023/12/27 00:16:20;;;;;;;1.40;0.90;;;6.00;99.90;;;;;;5035427;28;20199;-79
2023/12/27 00:19:08;;;;;;;1.13;0.87;;;6.10;99.90;;;;;;5034915;28;20227;-79
2023/12/27 00:21:56;;;;;;;0.93;0.80;;;6.00;99.90;;;;;;5034062;28;20195;-79
2023/12/27 00:24:43;;;;;;;2.13;0.73;;;6.10;99.90;;;;;;5034488;28;20195;-79
2023/12/27 00:27:31;;;;;;;1.33;0.80;;;6.20;99.90;;;;;;5034215;28;20235;-80
2023/12/27 00:30:18;;;;;;;0.80;0.80;;;6.10;99.90;;;;;;5034054;28;20326;-78
2023/12/27 00:33:06;;;;;;;1.57;0.83;;;6.10;99.90;;;;;;5035138;28;20284;-79
2023/12/27 00:35:53;;;;;;;2.20;0.70;;;6.10;99.90;;;;;;5035062;28;20196;-79
2023/12/27 00:38:41;;;;;;;1.90;1.10;;;6.10;99.90;;;;;;5034511;28;20194;-79
2023/12/27 00:41:28;;;;;;;1.40;1.00;;;6.10;99.90;;;;;;5034703;28;20218;-79
2023/12/27 00:44:16;;;;;;;2.63;0.90;;;6.10;99.90;;;;;;5033742;28;20192;-79
2023/12/27 00:47:03;;;;;;;1.17;0.80;;;6.10;99.90;;;;;;5033756;28;20551;-78
2023/12/27 00:49:50;;;;;;;1.90;0.90;;;6.00;99.90;;;;;;5034298;28;20230;-79
2023/12/27 00:52:38;;;;;;;1.53;0.90;;;6.00;99.90;;;;;;5034185;28;20242;-79
2023/12/27 00:55:26;;;;;;;2.10;1.00;;;6.00;99.90;;;;;;5034142;28;20225;-79
2023/12/27 00:58:13;;;;;;;1.77;1.10;;;5.90;99.90;;;;;;5033832;28;20334;-79
2023/12/27 01:01:01;;;;;;;2.27;1.20;;;5.80;99.90;;;;;;5034008;28;20203;-79
2023/12/27 01:03:48;;;;;;;1.60;1.20;;;5.80;99.90;;;;;;5032360;28;20679;-79
2023/12/27 01:06:36;;;;;;;3.93;1.10;;;5.70;99.90;;;;;;5033659;28;20231;-79
2023/12/27 01:09:23;;;;;;;2.47;1.17;;;5.70;99.90;;;;;;5033851;28;20201;-79
2023/12/27 01:12:11;;;;;;;2.70;1.30;;;5.70;99.90;;;;;;5033777;28;20308;-79
2023/12/27 01:14:58;;;;;;;1.57;1.17;;;5.70;99.90;;;;;;5032767;28;20226;-79
2023/12/27 01:17:46;;;;;;;2.07;1.20;;;5.80;99.90;;;;;;5033142;28;20674;-79
2023/12/27 01:20:34;;;;;;;1.63;1.20;;;5.80;99.90;;;;;;5034630;28;20580;-79
2023/12/27 01:23:21;;;;;;;3.77;1.60;;;5.80;99.90;;;;;;5033654;28;20281;-79
2023/12/27 01:26:08;;;;;;;1.37;1.10;;;5.80;99.90;;;;;;5034105;28;20223;-79
2023/12/27 01:28:56;;;;;;;2.03;1.10;;;5.80;99.90;;;;;;5033143;28;20198;-79
2023/12/27 01:31:43;;;;;;;2.37;1.10;;;5.80;99.90;;;;;;5033950;28;20195;-79
2023/12/27 01:34:31;;;;;;;1.20;1.10;;;5.70;99.90;;;;;;5033913;28;20305;-79
2023/12/27 01:37:21;;;;;;;1.90;1.00;;;5.70;99.90;;;;;;5033913;28;20589;-79
2023/12/27 01:40:08;;;;;;;1.40;0.90;;;5.70;99.90;;;;;;5033340;28;20288;-79
2023/12/27 01:42:55;;;;;;;3.00;1.10;;;5.70;99.90;;;;;;5033252;28;20253;-79
2023/12/27 01:45:47;;;;;;;2.70;1.10;;;5.70;99.90;;;;;;5033763;28;20587;-78
2023/12/27 01:48:40;;;;;;;1.73;1.00;;;5.70;99.90;;;;;;5034348;28;20207;-79
2023/12/27 01:51:30;;;;;;;2.37;1.00;;;5.70;99.90;;;;;;5033044;28;20199;-79
2023/12/27 01:54:17;;;;;;;3.40;1.10;;;5.60;99.90;;;;;;5032378;28;20243;-79
2023/12/27 01:57:05;;;;;;;1.73;1.30;;;5.60;99.90;;;;;;5032339;28;20265;-79
2023/12/27 01:59:53;;;;;;;1.23;0.90;;;5.60;99.90;;;;;;5032880;28;20188;-79
2023/12/27 02:02:41;;;;;;;1.10;0.90;;;5.60;99.90;;;;;;5044468;28;20284;-79
2023/12/27 02:05:29;;;;;;;2.97;1.00;;;5.60;99.90;;;;;;5032621;28;20239;-79
2023/12/27 02:08:17;;;;;;;2.20;1.10;;;5.60;99.90;;;;;;5032560;28;20192;-79
2023/12/27 02:11:06;;;;;;;3.00;1.10;;;5.60;99.90;;;;;;5032733;28;20297;-79
2023/12/27 02:13:53;;;;;;;1.47;1.10;;;5.60;99.90;;;;;;5032390;28;20192;-78
2023/12/27 02:16:42;;;;;;;2.33;1.00;;;5.60;99.90;;;;;;5031615;28;20206;-79
2023/12/27 02:19:29;;;;;;;1.70;1.00;;;5.50;99.90;;;;;;5033685;28;20669;-79
2023/12/27 02:22:25;;;;;;;1.60;1.03;;;5.40;99.90;;;;;;5032607;28;20663;-78
2023/12/27 02:25:13;;;;;;;1.40;1.10;;;5.40;99.90;;;;;;5032675;28;20231;-79
2023/12/27 02:28:01;;;;;;;1.23;1.07;;;5.30;99.90;;;;;;5032554;28;20285;-79
2023/12/27 02:30:48;;;;;;;2.10;1.30;;;5.20;99.90;;;;;;5032406;28;20195;-79
2023/12/27 02:33:37;;;;;;;1.10;1.00;;;5.20;99.90;;;;;;5032398;28;20204;-79
2023/12/27 02:36:25;;;;;;;1.87;1.20;;;5.20;99.90;;;;;;5031395;28;20200;-79
2023/12/27 02:39:12;;;;;;;1.40;0.90;;;5.10;99.90;;;;;;5031935;28;20195;-79
2023/12/27 02:42:00;;;;;;;1.57;1.10;;;5.10;99.90;;;;;;5032836;28;20298;-79
2023/12/27 02:44:47;;;;;;;1.57;0.90;;;5.10;99.90;;;;;;5031292;28;20267;-79
2023/12/27 02:47:35;;;;;;;1.47;1.10;;;5.10;99.90;;;;;;5032216;28;20207;-79
2023/12/27 02:50:22;;;;;;;2.27;1.30;;;5.10;99.90;;;;;;5032266;28;20203;-78
2023/12/27 02:53:11;;;;;;;2.03;1.10;;;5.00;99.90;;;;;;5031554;28;20546;-78
2023/12/27 02:55:58;;;;;;;3.67;1.20;;;4.90;99.90;;;;;;5033141;28;20238;-79
2023/12/27 02:58:45;;;;;;;3.03;1.10;;;4.80;99.90;;;;;;5032681;28;20191;-79
2023/12/27 03:01:33;;;;;;;2.20;1.00;;;4.80;99.90;;;;;;5031123;28;20201;-79
2023/12/27 03:04:20;;;;;;;3.87;1.10;;;4.70;99.90;;;;;;5031561;28;20201;-79
2023/12/27 03:07:08;;;;;;;2.87;1.20;;;4.70;99.90;;;;;;5032052;28;20574;-78
2023/12/27 03:09:56;;;;;;;2.00;0.93;;;4.70;99.90;;;;;;5031429;28;20286;-79
2023/12/27 03:12:43;;;;;;;1.13;0.90;;;4.70;99.90;;;;;;5031966;28;20208;-79
2023/12/27 03:15:30;;;;;;;2.00;1.00;;;4.60;99.90;;;;;;5031439;28;20612;-79
2023/12/27 03:18:17;;;;;;;1.73;0.90;;;4.60;99.90;;;;;;5032027;28;20192;-79
2023/12/27 03:21:07;;;;;;;3.37;1.03;;;4.60;99.90;;;;;;5031987;28;20191;-79
2023/12/27 03:23:54;;;;;;;3.57;1.00;;;4.60;99.90;;;;;;5032958;28;20206;-79
2023/12/27 03:26:42;;;;;;;4.07;1.17;;;4.70;99.90;;;;;;5033838;28;20223;-79
2023/12/27 03:29:30;;;;;;;3.93;1.17;;;4.50;99.90;;;;;;5036342;28;20194;-79
2023/12/27 03:32:17;;;;;;;6.70;1.30;;;4.40;99.90;;;;;;5036311;28;20281;-79
2023/12/27 03:35:05;;;;;;;3.97;1.33;;;4.40;99.90;;;;;;5034641;28;20227;-78
2023/12/27 03:37:52;;;;;;;4.20;1.60;;;4.30;99.90;;;;;;5034640;28;20282;-78
2023/12/27 03:40:40;;;;;;;5.87;1.57;;;4.30;99.90;;;;;;5034818;28;20191;-79
2023/12/27 03:43:27;;;;;;;2.47;1.20;;;4.20;99.90;;;;;;5035603;28;20198;-79
2023/12/27 03:46:17;;;;;;;4.87;1.40;;;4.30;99.90;;;;;;5034957;28;20195;-79
2023/12/27 03:49:04;;;;;;;6.77;1.40;;;4.30;99.90;;;;;;5034911;28;20203;-79
2023/12/27 03:51:52;;;;;;;5.67;1.30;;;4.20;99.90;;;;;;5035329;28;20281;-78
2023/12/27 03:54:41;;;;;;;2.03;1.00;;;4.20;99.90;;;;;;5035814;28;20234;-78
2023/12/27 03:57:28;;;;;;;4.60;1.07;;;4.20;99.90;;;;;;5035828;28;20216;-79
2023/12/27 04:00:17;;;;;;;3.27;1.03;;;4.20;99.90;;;;;;5035257;28;20195;-79
2023/12/27 04:03:04;;;;;;;3.17;1.13;;;4.10;99.90;;;;;;5035161;28;20203;-79
2023/12/27 04:05:52;;;;;;;3.07;1.10;;;4.20;99.90;;;;;;5034945;28;20321;-78
2023/12/27 04:08:39;;;;;;;4.70;0.90;;;4.10;99.90;;;;;;5034043;28;20203;-79
2023/12/27 04:11:27;;;;;;;4.17;1.03;;;4.00;99.90;;;;;;5035476;28;20222;-79
2023/12/27 04:14:15;;;;;;;2.40;1.00;;;4.00;99.90;;;;;;5034895;28;20197;-79
2023/12/27 04:17:03;;;;;;;3.07;1.00;;;4.00;99.90;;;;;;5034807;28;20196;-79
2023/12/27 04:19:51;;;;;;;2.43;0.90;;;3.90;99.90;;;;;;5033827;28;20674;-79
2023/12/27 04:22:38;;;;;;;2.63;0.90;;;3.90;99.90;;;;;;5034824;28;20753;-79
2023/12/27 04:25:25;;;;;;;3.30;1.40;;;3.90;99.90;;;;;;5033811;28;20737;-79
2023/12/27 04:28:13;;;;;;;4.63;0.93;;;3.90;99.90;;;;;;5034695;28;20651;-79
2023/12/27 04:31:00;;;;;;;3.50;1.00;;;3.80;99.90;;;;;;5032992;28;20194;-79
2023/12/27 04:33:48;;;;;;;3.20;1.10;;;3.80;99.90;;;;;;5035198;28;20201;-79
2023/12/27 04:36:36;;;;;;;4.17;1.13;;;3.80;99.90;;;;;;5033517;28;20201;-79
2023/12/27 04:39:24;;;;;;;2.90;0.90;;;3.90;99.90;;;;;;5033835;28;20260;-79
2023/12/27 04:42:11;;;;;;;2.73;1.00;;;4.00;99.90;;;;;;5033295;28;20287;-78
2023/12/27 04:44:59;;;;;;;3.23;0.90;;;4.00;99.90;;;;;;5035476;28;20205;-79
2023/12/27 04:47:47;;;;;;;7.27;1.20;;;4.10;99.90;;;;;;5034355;28;20191;-79
2023/12/27 04:50:34;;;;;;;4.50;0.90;;;4.00;99.90;;;;;;5033779;28;20192;-79
2023/12/27 04:53:22;;;;;;;4.83;1.10;;;4.20;99.90;;;;;;5033629;28;20301;-79
2023/12/27 04:56:09;;;;;;;1.33;0.93;;;4.30;99.90;;;;;;5033067;28;20604;-80
2023/12/27 04:58:57;;;;;;;3.13;1.17;;;4.10;99.90;;;;;;5033143;28;20202;-79
2023/12/27 05:01:44;;;;;;;2.97;1.00;;;4.20;99.90;;;;;;5034687;28;20201;-79
2023/12/27 05:04:31;;;;;;;2.30;1.30;;;4.20;99.90;;;;;;5034078;28;20205;-79
2023/12/27 05:07:19;;;;;;;3.60;0.90;;;4.20;99.90;;;;;;5033402;28;20238;-85
2023/12/27 05:10:08;;;;;;;5.63;1.20;;;4.20;99.90;;;;;;5033838;28;20192;-85
2023/12/27 05:12:55;;;;;;;6.13;1.50;;;4.20;99.90;;;;;;5033599;28;20238;-85
2023/12/27 05:15:42;;;;;;;4.63;1.57;;;4.20;99.90;;;;;;5032803;28;20230;-86
2023/12/27 05:18:30;;;;;;;3.40;1.30;;;4.20;99.90;;;;;;5033397;28;20199;-85
2023/12/27 05:21:18;;;;;;;3.77;1.20;;;4.20;99.90;;;;;;5034126;28;20236;-86
2023/12/27 05:24:06;;;;;;;5.03;1.20;;;4.10;99.90;;;;;;5033727;28;20217;-85
2023/12/27 05:26:54;;;;;;;6.13;1.00;;;4.10;99.90;;;;;;5033601;28;20592;-85
2023/12/27 05:29:42;;;;;;;4.07;1.30;;;4.20;99.90;;;;;;5033556;28;20239;-84
2023/12/27 05:32:29;;;;;;;6.23;1.30;;;4.20;99.90;;;;;;5034087;28;20195;-85
2023/12/27 05:35:16;;;;;;;5.50;1.37;;;4.20;99.90;;;;;;5033411;28;20585;-85
2023/12/27 05:38:04;;;;;;;5.97;1.33;;;4.20;99.90;;;;;;5033407;28;20244;-85
2023/12/27 05:40:51;;;;;;;4.53;1.23;;;4.20;99.90;;;;;;5031639;28;20350;-85
2023/12/27 05:43:39;;;;;;;7.30;1.23;;;4.20;99.90;;;;;;5033691;28;20206;-85
2023/12/27 05:46:26;;;;;;;5.00;1.20;;;4.20;99.90;;;;;;5033242;28;20214;-85
2023/12/27 05:49:13;;;;;;;4.80;1.20;;;4.20;99.90;;;;;;5032359;28;20282;-85
2023/12/27 05:52:01;;;;;;;4.23;1.50;;;4.20;99.90;;;;;;5033127;28;20191;-86
2023/12/27 05:54:48;;;;;;;4.47;1.40;;;4.20;99.90;;;;;;5033598;28;20736;-85
2023/12/27 05:57:36;;;;;;;6.43;1.40;;;4.30;99.90;;;;;;5033625;28;20361;-85
2023/12/27 06:00:24;;;;;;;4.03;1.23;;;4.30;99.90;;;;;;5032490;28;20273;-85
2023/12/27 06:03:11;;;;;;;5.53;1.50;;;4.20;99.90;;;;;;5032588;28;20196;-86
2023/12/27 06:05:59;;;;;;;7.77;1.63;;;4.20;99.90;;;;;;5032234;28;20228;-85
2023/12/27 06:08:46;;;;;;;4.27;1.37;;;4.20;99.90;;;;;;5032432;28;20707;-85
2023/12/27 06:11:34;;;;;;;5.20;1.40;;;4.10;99.90;;;;;;5032758;28;20273;-85
2023/12/27 06:14:21;;;;;;;2.77;1.27;;;4.10;99.90;;;;;;5032146;28;20206;-86
2023/12/27 06:17:08;;;;;;;4.10;1.33;;;4.10;99.90;;;;;;5032677;28;20192;-86
2023/12/27 06:19:56;;;;;;;4.97;1.43;;;4.10;99.90;;;;;;5032114;28;20198;-86
2023/12/27 06:22:43;;;;;;;3.63;1.33;;;4.10;99.90;;;;;;5032650;28;20297;-85
2023/12/27 06:25:31;;;;;;;5.50;1.47;;;4.10;99.90;;;;;;5033120;28;20655;-85
2023/12/27 06:28:18;;;;;;;4.03;1.33;;;4.10;99.90;;;;;;5031952;28;20234;-85
2023/12/27 06:31:05;;;;;;;7.90;1.60;;;4.10;99.90;;;;;;5032489;28;20309;-85
2023/12/27 06:33:53;;;;;;;3.30;1.33;;;4.00;99.90;;;;;;5031939;28;20275;-85
2023/12/27 06:36:41;;;;;;;4.77;1.63;;;4.00;99.90;;;;;;5031885;28;20226;-86
2023/12/27 06:39:28;;;;;;;9.07;1.80;;;4.00;99.90;;;;;;5032401;28;20217;-86
2023/12/27 06:42:16;;;;;;;3.97;1.33;;;4.00;99.90;;;;;;5032541;28;20582;-85
2023/12/27 06:45:05;;;;;;;4.20;1.63;;;4.00;99.90;;;;;;5032006;28;20207;-85
2023/12/27 06:47:52;;;;;;;6.17;1.57;;;4.00;99.90;;;;;;5031237;28;20196;-84
2023/12/27 06:50:42;;;;;;;4.70;1.43;;;4.00;99.90;;;;;;5032297;28;20195;-85
2023/12/27 06:53:29;;;;;;;4.37;1.47;;;4.00;99.90;;;;;;5030703;28;20199;-85
2023/12/27 06:56:17;;;;;;;3.93;1.40;;;3.90;99.90;;;;;;5031433;28;20261;-85
2023/12/27 06:59:04;;;;;;;3.93;1.50;;;3.90;99.90;;;;;;5033103;28;20199;-85
2023/12/27 07:01:52;;;;;;;8.57;1.73;;;3.90;99.90;;;;;;5033626;28;20207;-85
2023/12/27 07:04:41;;;;;;;6.20;1.77;;;3.80;99.90;;;;;;5036401;28;20594;-85
2023/12/27 07:07:29;;;;;;;4.47;1.67;;;3.80;99.90;;;;;;5037177;28;20194;-85
2023/12/27 07:10:17;;;;;;;5.33;1.60;;;3.80;99.90;;;;;;5036190;28;20246;-86
2023/12/27 07:13:04;;;;;;;4.60;1.50;;;3.70;99.90;;;;;;5036134;28;20613;-85
2023/12/27 07:15:51;;;;;;;3.57;1.60;;;3.70;99.90;;;;;;5036050;28;20622;-86
2023/12/27 07:18:39;;;;;;;5.93;1.80;;;3.70;99.90;;;;;;5036526;28;20195;-86
2023/12/27 07:21:27;;;;;;;8.40;1.90;;;3.60;99.90;;;;;;5035404;28;20198;-85
2023/12/27 07:24:14;;;;;;;5.20;1.80;;;3.70;99.90;;;;;;5035353;28;20679;-86
2023/12/27 07:27:03;;;;;;;5.73;1.80;;;3.60;99.90;;;;;;5034969;28;20652;-83
2023/12/27 07:29:51;;;;;;;4.10;1.87;;;3.60;99.90;;;;;;5035874;28;20222;-84
2023/12/27 07:32:42;;;;;;;8.40;2.00;;;3.70;99.90;;;;;;5035312;28;20674;-86
2023/12/27 07:35:30;;;;;;;7.33;1.83;;;3.70;99.90;;;;;;5036428;28;20215;-87
2023/12/27 07:38:17;;;;;;;7.10;1.90;;;3.70;99.90;;;;;;5035865;28;20221;-84
2023/12/27 07:41:05;;;;;;;6.27;1.60;;;3.80;99.90;;;;;;5035684;28;20253;-86
2023/12/27 07:43:52;;;;;;;7.27;1.90;;;3.90;99.90;;;;;;5034053;28;20203;-87
2023/12/27 07:46:40;;;;;;;7.83;1.83;;;3.90;99.90;;;;;;5035405;28;20673;-85
2023/12/27 07:49:27;;;;;;;4.60;1.60;;;4.00;99.90;;;;;;5035975;28;20309;-85
2023/12/27 07:52:15;;;;;;;6.27;1.77;;;4.10;99.90;;;;;;5034417;28;20202;-85
2023/12/27 07:55:03;;;;;;;5.63;1.83;;;4.10;99.90;;;;;;5034155;28;20188;-85
2023/12/27 07:57:51;;;;;;;6.07;2.00;;;4.10;99.90;;;;;;5035585;28;20212;-84
2023/12/27 08:00:38;;;;;;;8.63;2.00;;;4.10;99.90;;;;;;5034774;28;20234;-85
2023/12/27 08:03:26;;;;;;;10.50;2.03;;;4.10;99.90;;;;;;5035248;28;20227;-85
2023/12/27 08:06:14;;;;;;;4.77;1.60;;;4.20;99.90;;;;;;5034895;28;20572;-83
2023/12/27 08:09:01;;;;;;;4.67;1.77;;;4.20;99.90;;;;;;5035157;28;21176;-86
2023/12/27 08:11:49;;;;;;;7.67;1.87;;;4.20;99.90;;;;;;5034511;28;20208;-84
2023/12/27 08:14:36;;;;;;;7.20;1.90;;;4.30;99.90;;;;;;5035517;28;20202;-84
2023/12/27 08:17:23;;;;;;;5.30;1.70;;;4.30;99.90;;;;;;5034932;28;20223;-84
2023/12/27 08:20:11;;;;;;;5.00;2.03;;;4.30;99.90;;;;;;5034251;28;20202;-82
2023/12/27 08:22:58;;;;;;;8.10;1.90;;;4.30;99.90;;;;;;5034781;28;20191;-84
2023/12/27 08:25:46;;;;;;;5.13;1.70;;;4.30;99.90;;;;;;5035963;28;20193;-83
2023/12/27 08:28:37;;;;;;;4.17;1.83;;;4.30;99.90;;;;;;5034049;28;20267;-83
2023/12/27 08:31:24;;;;;;;8.03;1.77;;;4.40;99.90;;;;;;5034215;28;20207;-85
2023/12/27 08:34:12;;;;;;;4.10;2.00;;;4.40;99.90;;;;;;5035375;28;20667;-87
2023/12/27 08:37:00;;;;;;;5.30;1.73;;;4.40;99.90;;;;;;5034533;28;20247;-84
2023/12/27 08:39:48;;;;;;;13.17;2.47;;;4.50;99.90;;;;;;5033453;28;20577;-82
2023/12/27 08:42:35;;;;;;;10.10;1.80;;;4.50;99.90;;;;;;5033556;28;20222;-85
2023/12/27 08:45:23;;;;;;;6.87;1.80;;;4.50;99.90;;;;;;5035339;28;20251;-87
2023/12/27 08:48:11;;;;;;;5.97;1.87;;;4.50;99.90;;;;;;5034340;28;20199;-83
2023/12/27 08:50:59;;;;;;;8.87;1.90;;;4.50;99.90;;;;;;5034590;28;20195;-81
2023/12/27 08:53:46;;;;;;;7.50;1.97;;;4.50;99.90;;;;;;5032250;28;20352;-80
2023/12/27 08:56:34;;;;;;;5.93;1.67;;;4.50;99.90;;;;;;5034677;28;20222;-80
2023/12/27 08:59:21;;;;;;;7.77;2.33;;;4.40;99.90;;;;;;5034141;28;20200;-80
2023/12/27 09:02:09;;;;;;;9.23;2.10;;;4.40;99.90;;;;;;5033667;28;20702;-85
2023/12/27 09:04:56;;;;;;;6.47;1.83;;;4.50;99.90;;;;;;5033307;28;20596;-86
2023/12/27 09:07:43;;;;;;;6.50;2.17;;;4.40;99.90;;;;;;5034032;28;20546;-85
2023/12/27 09:10:31;;;;;;;7.63;2.10;;;4.50;99.90;;;;;;5032847;28;20195;-85
2023/12/27 09:13:18;;;;;;;7.40;1.83;;;4.40;99.90;;;;;;5032819;28;20202;-85
2023/12/27 09:16:06;;;;;;;6.40;1.90;;;4.50;99.90;;;;;;5033361;28;20215;-85
2023/12/27 09:18:54;;;;;;;6.30;2.00;;;4.40;99.90;;;;;;5033925;28;20289;-86
2023/12/27 09:21:46;;;;;;;7.00;1.97;;;4.50;99.90;;;;;;5033722;28;20277;-86
2023/12/27 09:24:34;;;;;;;6.87;1.70;;;4.60;99.90;;;;;;5031731;28;20205;-86
2023/12/27 09:27:25;;;;;;;7.57;1.73;;;4.60;99.90;;;;;;5034224;28;20220;-83
2023/12/27 09:30:12;;;;;;;7.90;1.80;;;4.70;99.90;;;;;;5034712;28;20207;-81
2023/12/27 09:33:00;;;;;;;5.93;2.20;;;4.80;99.90;;;;;;5032551;28;20200;-81
2023/12/27 09:35:48;;;;;;;7.87;2.27;;;4.90;99.90;;;;;;5030531;28;20208;-82
2023/12/27 09:38:37;;;;;;;7.43;2.07;;;5.00;99.90;;;;;;5032893;28;20203;-81
2023/12/27 09:41:27;;;;;;;6.47;1.97;;;5.10;99.90;;;;;;5033574;28;20217;-83
2023/12/27 09:44:20;;;;;;;10.13;2.03;;;5.10;99.90;;;;;;5033484;28;20465;-83
2023/12/27 09:47:10;;;;;;;6.67;2.10;;;5.20;99.90;;;;;;5033289;28;20204;-82
2023/12/27 09:49:58;;;;;;;5.53;1.90;;;5.10;99.90;;;;;;5034351;28;20203;-82
2023/12/27 09:52:47;;;;;;;6.77;2.00;;;5.10;99.90;;;;;;5032545;28;20200;-82
2023/12/27 09:55:35;;;;;;;8.40;2.13;;;5.10;99.90;;;;;;5031835;28;20282;-82
2023/12/27 09:58:29;;;;;;;5.33;1.70;;;5.10;99.90;;;;;;5032995;28;20546;-83
2023/12/27 10:01:16;;;;;;;4.67;2.17;;;5.20;99.90;;;;;;5031573;28;20560;-82
2023/12/27 10:04:45;;;;;;;8.80;2.20;;;5.20;99.90;;;;;;5031669;28;20195;-83
2023/12/27 10:07:38;;;;;;;7.53;2.10;;;5.30;99.90;;;;;;4997229;28;20726;-83
2023/12/27 10:10:27;;;;;;;7.40;1.93;;;5.40;99.90;;;;;;5010059;28;20288;-83
2023/12/27 10:13:15;;;;;;;6.50;2.20;;;5.40;99.90;;;;;;5010670;28;20207;-85
2023/12/27 10:16:04;;;;;;;5.33;2.13;;;5.50;99.90;;;;;;5011675;28;20297;-84
2023/12/27 10:18:51;;;;;;;6.33;2.03;;;5.50;99.90;;;;;;5009978;28;20193;-84
2023/12/27 10:21:42;;;;;;;9.27;2.00;;;5.50;99.90;;;;;;4997646;28;20200;-85
2023/12/27 10:24:30;;;;;;;7.40;2.30;;;5.40;99.90;;;;;;5011294;28;20193;-85
2023/12/27 10:27:17;;;;;;;7.63;2.13;;;5.40;99.90;;;;;;5011724;28;20298;-85
2023/12/27 10:30:08;;;;;;;7.30;2.40;;;5.30;99.90;;;;;;5011185;28;20196;-86
2023/12/27 10:33:00;;;;;;;10.77;2.10;;;5.40;99.90;;;;;;5010594;28;20258;-85
2023/12/27 10:35:49;;;;;;;7.23;2.00;;;5.40;99.90;;;;;;5010768;28;20206;-83
2023/12/27 10:38:38;;;;;;;5.40;2.17;;;5.40;99.90;;;;;;5012104;28;20208;-86
2023/12/27 10:41:25;;;;;;;8.27;2.57;;;5.40;99.90;;;;;;5023707;28;20219;-84
2023/12/27 10:44:17;;;;;;;8.70;2.50;;;5.40;99.90;;;;;;5032321;28;20665;-83
2023/12/27 10:47:08;;;;;;;7.40;1.90;;;5.30;99.90;;;;;;5034212;28;20205;-84
2023/12/27 10:49:58;;;;;;;10.60;2.80;;;5.30;99.90;;;;;;5032740;28;20210;-83
2023/12/27 10:52:55;;;;;;;6.23;2.10;;;5.30;99.90;;;;;;5032293;28;20561;-84
2023/12/27 10:55:44;;;;;;;10.60;2.33;;;5.30;99.90;;;;;;5031977;28;20329;-86
2023/12/27 10:58:33;;;;;;;8.43;2.10;;;5.20;99.90;;;;;;5032911;28;20547;-85
2023/12/27 11:01:25;;;;;;;6.37;2.23;;;5.30;99.90;;;;;;5031924;28;20194;-84
2023/12/27 11:04:16;;;;;;;10.20;2.70;;;5.20;99.90;;;;;;5032888;28;20203;-86
2023/12/27 11:07:05;;;;;;;7.20;2.30;;;5.20;99.90;;;;;;5032660;28;20231;-85
2023/12/27 11:09:55;;;;;;;6.80;2.47;;;5.40;99.90;;;;;;5032300;28;20558;-84
2023/12/27 11:12:46;;;;;;;9.73;2.40;;;5.40;99.90;;;;;;5032097;28;20603;-84
2023/12/27 11:15:37;;;;;;;5.97;1.77;;;5.30;99.90;;;;;;5032232;28;20290;-83
2023/12/27 11:18:27;;;;;;;6.70;2.07;;;5.40;99.90;;;;;;5030941;28;20214;-84
2023/12/27 11:21:15;;;;;;;7.27;2.20;;;5.10;99.90;;;;;;5032010;28;20681;-83
2023/12/27 11:24:04;;;;;;;7.30;2.60;;;5.10;99.90;;;;;;5032518;28;20231;-84
2023/12/27 11:27:02;;;;;;;10.23;2.37;;;5.30;99.90;;;;;;5031194;28;20298;-83
2023/12/27 11:29:49;;;;;;;9.13;2.57;;;5.30;99.90;;;;;;5030716;28;20188;-82
2023/12/27 11:32:36;;;;;;;7.23;2.13;;;5.30;99.90;;;;;;5032498;28;20199;-85
2023/12/27 11:35:27;;;;;;;9.13;2.40;;;5.20;99.90;;;;;;5031860;28;20191;-86
2023/12/27 11:38:21;;;;;;;5.73;2.30;;;5.30;99.90;;;;;;5031775;28;20224;-85
2023/12/27 11:41:08;;;;;;;10.13;3.03;;;5.30;99.90;;;;;;5030924;28;20234;-85
2023/12/27 11:44:03;;;;;;;7.70;2.50;;;5.40;99.90;;;;;;5032834;28;20358;-85
2023/12/27 11:46:52;;;;;;;9.20;3.00;;;5.40;99.90;;;;;;5032297;28;20694;-86
2023/12/27 11:49:40;;;;;;;7.10;2.27;;;5.50;99.90;;;;;;5035449;28;20709;-82
2023/12/27 11:52:28;;;;;;;8.77;2.60;;;5.70;99.90;;;;;;5036015;28;20933;-81
2023/12/27 11:55:17;;;;;;;10.40;2.80;;;5.70;99.90;;;;;;5035326;28;20636;-81
2023/12/27 11:58:05;;;;;;;8.97;2.70;;;5.70;99.90;;;;;;5034651;28;20223;-81
2023/12/27 12:00:52;;;;;;;7.43;2.53;;;5.60;99.90;;;;;;5035218;28;20206;-81
2023/12/27 12:03:40;;;;;;;6.57;2.57;;;5.50;99.90;;;;;;5035113;28;20199;-82
2023/12/27 12:06:45;;;;;;;7.73;2.40;;;5.50;99.90;;;;;;5034863;28;20239;-81
2023/12/27 12:09:44;;;;;;;9.50;2.50;;;5.30;99.90;;;;;;5036088;28;20480;-81
2023/12/27 12:12:32;;;;;;;9.37;2.47;;;5.20;99.90;;;;;;5035382;28;20266;-83
2023/12/27 12:15:21;;;;;;;12.20;2.83;;;5.20;99.90;;;;;;5034741;28;20198;-85
2023/12/27 12:18:09;;;;;;;8.33;2.60;;;5.20;99.90;;;;;;5035314;28;20697;-84
2023/12/27 12:20:57;;;;;;;9.50;2.73;;;5.20;99.90;;;;;;5033187;28;20205;-83
2023/12/27 12:23:47;;;;;;;7.13;2.87;;;5.20;99.90;;;;;;5036529;28;20219;-83
2023/12/27 12:26:37;;;;;;;7.17;2.47;;;5.20;99.90;;;;;;5034582;28;20216;-82
2023/12/27 12:29:25;;;;;;;8.70;2.70;;;5.30;99.90;;;;;;5034655;28;20190;-79
2023/12/27 12:32:15;;;;;;;7.37;2.10;;;5.20;99.90;;;;;;5035667;28;20575;-85
2023/12/27 12:35:04;;;;;;;9.43;2.40;;;5.20;99.90;;;;;;5035628;28;20262;-82
2023/12/27 12:37:51;;;;;;;10.50;2.33;;;5.20;99.90;;;;;;5033409;28;20215;-83
2023/12/27 12:40:39;;;;;;;6.93;2.37;;;5.20;99.90;;;;;;5033930;28;20200;-84
2023/12/27 12:43:27;;;;;;;8.30;2.00;;;5.20;99.90;;;;;;5034313;28;20659;-84
2023/12/27 12:46:14;;;;;;;9.50;2.67;;;5.10;99.90;;;;;;5034371;28;20203;-83
2023/12/27 12:49:05;;;;;;;6.77;2.40;;;5.10;99.90;;;;;;5035749;28;20252;-79
2023/12/27 12:51:57;;;;;;;7.17;2.20;;;5.00;99.90;;;;;;5035896;28;20214;-83
2023/12/27 12:54:48;;;;;;;5.47;2.23;;;5.10;99.90;;;;;;5034656;28;20203;-84
2023/12/27 12:57:35;;;;;;;11.00;2.90;;;5.20;99.90;;;;;;5033344;28;20373;-82
2023/12/27 13:00:23;;;;;;;9.30;2.73;;;5.10;99.90;;;;;;5034263;28;20560;-82
2023/12/27 13:03:12;;;;;;;10.33;2.70;;;5.00;99.90;;;;;;5033424;28;20193;-83
2023/12/27 13:05:59;;;;;;;6.53;2.30;;;5.00;99.90;;;;;;5033854;28;20695;-83
2023/12/27 13:08:50;;;;;;;7.80;2.80;;;5.00;99.90;;;;;;5033353;28;20192;-82
2023/12/27 13:11:37;;;;;;;6.60;2.43;;;5.00;99.90;;;;;;5033862;28;20243;-81
2023/12/27 13:14:25;;;;;;;7.50;2.33;;;5.00;99.90;;;;;;5035101;28;20195;-82
2023/12/27 13:17:12;;;;;;;10.33;2.73;;;4.90;99.90;;;;;;5033434;28;20227;-84
2023/12/27 13:20:00;;;;;;;8.87;2.80;;;4.90;99.90;;;;;;5033185;28;20809;-82
2023/12/27 13:22:48;;;;;;;8.47;2.80;;;4.90;99.90;;;;;;5033679;28;20194;-82
2023/12/27 13:25:35;;;;;;;8.87;3.13;;;4.70;99.90;;;;;;5033539;28;20659;-82
2023/12/27 13:28:25;;;;;;;12.00;3.17;;;4.70;99.90;;;;;;5033055;28;20230;-85
2023/12/27 13:31:12;;;;;;;6.23;2.77;;;4.70;99.90;;;;;;5033063;28;20314;-83
2023/12/27 13:34:00;;;;;;;6.50;2.80;;;4.70;99.90;;;;;;5033359;28;20196;-81
2023/12/27 13:36:47;;;;;;;6.80;2.80;;;4.70;99.90;;;;;;5033886;28;20690;-81
2023/12/27 13:39:35;;;;;;;11.23;3.53;;;4.90;99.90;;;;;;5032592;28;20199;-81
2023/12/27 13:42:22;;;;;;;7.83;2.87;;;5.00;99.90;;;;;;5033219;28;20222;-82
2023/12/27 13:45:10;;;;;;;7.80;3.00;;;4.90;99.90;;;;;;5033184;28;20652;-82
2023/12/27 13:47:57;;;;;;;8.60;2.80;;;4.90;99.90;;;;;;5033361;28;20196;-84
2023/12/27 13:50:45;;;;;;;7.27;2.60;;;4.80;99.90;;;;;;5032183;28;20667;-83
2023/12/27 13:53:33;;;;;;;7.17;3.53;;;4.70;99.90;;;;;;5032098;28;20249;-83
2023/12/27 13:56:20;;;;;;;7.07;2.90;;;4.70;99.90;;;;;;5033349;28;20618;-82
2023/12/27 13:59:07;;;;;;;8.27;3.10;;;4.70;99.90;;;;;;5033401;28;20237;-83
2023/12/27 14:01:56;;;;;;;9.93;3.53;;;4.70;99.90;;;;;;5031569;28;20197;-81
2023/12/27 14:04:46;;;;;;;6.43;2.70;;;4.60;99.90;;;;;;5032388;28;20190;-81
2023/12/27 14:07:35;;;;;;;9.67;3.47;;;4.60;99.90;;;;;;5033241;28;20203;-82
2023/12/27 14:10:22;;;;;;;11.90;3.40;;;4.50;99.90;;;;;;5032340;28;20201;-82
2023/12/27 14:13:10;;;;;;;9.37;3.30;;;4.50;99.90;;;;;;5031710;28;20225;-82
2023/12/27 14:15:59;;;;;;;9.20;3.10;;;4.50;99.90;;;;;;5031535;28;20630;-81
2023/12/27 14:18:46;;;;;;;8.33;3.57;;;4.40;99.90;;;;;;5033008;28;20220;-82
2023/12/27 14:21:35;;;;;;;8.70;3.43;;;4.40;99.90;;;;;;5033707;28;20720;-82
2023/12/27 14:24:22;;;;;;;7.93;3.10;;;4.40;99.90;;;;;;5031495;28;20203;-82
2023/12/27 14:27:10;;;;;;;8.30;3.47;;;4.40;99.90;;;;;;5031940;28;20218;-82
2023/12/27 14:29:57;;;;;;;5.90;3.00;;;4.40;99.90;;;;;;5031627;28;20227;-83
2023/12/27 14:32:45;;;;;;;6.30;3.07;;;4.30;99.90;;;;;;5031120;28;20193;-82
2023/12/27 14:35:32;;;;;;;8.83;3.60;;;4.30;99.90;;;;;;5031843;28;20253;-82
2023/12/27 14:38:20;;;;;;;8.27;3.60;;;4.30;99.90;;;;;;5032880;28;20218;-82
2023/12/27 14:41:14;;;;;;;7.17;3.33;;;4.20;99.90;;;;;;5033746;28;20216;-82
2023/12/27 14:44:03;;;;;;;12.90;3.50;;;4.20;99.90;;;;;;5031423;28;20690;-81
2023/12/27 14:46:53;;;;;;;8.80;3.40;;;4.20;99.90;;;;;;5032175;28;20201;-84